createdAt,value
2022-09-26T00:02:18.361Z,69.80
2022-09-26T00:05:23.952Z,69.74
2022-09-26T00:08:29.268Z,69.70
2022-09-26T00:11:35.626Z,69.76
2022-09-26T00:14:41.138Z,69.85
2022-09-26T00:17:46.593Z,69.79
2022-09-26T00:20:52.016Z,69.90
2022-09-26T00:23:58.700Z,70.02
2022-09-26T00:27:04.116Z,70.07
2022-09-26T00:30:11.651Z,70.06
2022-09-26T00:33:17.019Z,70.11
2022-09-26T00:36:29.811Z,70.04
2022-09-26T00:39:42.276Z,70.09
2022-09-26T00:42:47.827Z,70.15
2022-09-26T00:45:53.658Z,70.13
2022-09-26T00:49:15.218Z,70.03
2022-09-26T00:52:24.060Z,69.94
2022-09-26T00:55:35.168Z,69.97
2022-09-26T00:58:49.205Z,69.90
2022-09-26T01:01:56.990Z,69.65
2022-09-26T01:05:03.187Z,69.55
2022-09-26T01:08:09.014Z,69.50
2022-09-26T01:11:17.191Z,69.31
2022-09-26T01:14:23.309Z,69.20
2022-09-26T01:17:29.169Z,69.10
2022-09-26T01:20:44.463Z,69.10
2022-09-26T01:24:11.638Z,68.99
2022-09-26T01:27:44.390Z,68.95
2022-09-26T01:30:54.231Z,68.99
2022-09-26T01:34:05.951Z,69.35
2022-09-26T01:37:21.953Z,70.11
2022-09-26T01:40:31.615Z,70.75
2022-09-26T01:43:48.913Z,70.40
2022-09-26T01:46:58.476Z,69.60
2022-09-26T01:50:08.413Z,69.19
2022-09-26T01:53:20.218Z,69.14
2022-09-26T01:56:29.456Z,68.98
2022-09-26T01:59:40.384Z,68.71
2022-09-26T02:02:47.838Z,68.44
2022-09-26T02:05:57.361Z,68.36
2022-09-26T02:09:10.521Z,68.40
2022-09-26T02:12:22.584Z,68.36
2022-09-26T02:15:32.421Z,68.68
2022-09-26T02:18:42.152Z,68.74
2022-09-26T02:21:47.989Z,69.03
2022-09-26T02:24:53.825Z,69.44
2022-09-26T02:27:59.551Z,69.94
2022-09-26T02:31:08.469Z,69.89
2022-09-26T02:34:14.392Z,69.98
2022-09-26T02:37:21.997Z,69.89
2022-09-26T02:40:35.405Z,69.90
2022-09-26T02:43:56.857Z,69.91
2022-09-26T02:47:16.392Z,70.07
2022-09-26T02:50:34.565Z,70.06
2022-09-26T02:53:58.671Z,70.20
2022-09-26T02:57:22.498Z,70.11
2022-09-26T03:00:33.872Z,70.15
2022-09-26T03:03:45.505Z,69.96
2022-09-26T03:06:55.813Z,69.79
2022-09-26T03:10:04.710Z,69.82
2022-09-26T03:13:14.370Z,69.75
2022-09-26T03:16:21.204Z,69.56
2022-09-26T03:19:32.554Z,69.38
2022-09-26T03:22:38.253Z,69.12
2022-09-26T03:25:44.572Z,68.92
2022-09-26T03:28:50.325Z,68.84
2022-09-26T03:31:55.725Z,68.47
2022-09-26T03:35:01.184Z,68.62
2022-09-26T03:38:08.310Z,68.98
2022-09-26T03:41:16.927Z,69.12
2022-09-26T03:44:22.895Z,69.10
2022-09-26T03:47:28.305Z,68.94
2022-09-26T03:50:34.765Z,68.83
2022-09-26T03:53:42.057Z,68.58
2022-09-26T03:56:47.325Z,68.36
2022-09-26T03:59:52.633Z,68.30
2022-09-26T04:03:02.822Z,68.25
2022-09-26T04:06:10.290Z,68.30
2022-09-26T04:09:17.730Z,68.29
2022-09-26T04:12:23.654Z,68.31
2022-09-26T04:15:30.019Z,68.28
2022-09-26T04:18:36.398Z,68.60
2022-09-26T04:21:42.378Z,69.11
2022-09-26T04:24:47.691Z,69.35
2022-09-26T04:27:52.978Z,69.54
2022-09-26T04:31:01.509Z,69.72
2022-09-26T04:34:07.635Z,69.85
2022-09-26T04:37:13.420Z,69.94
2022-09-26T04:40:18.887Z,69.92
2022-09-26T04:43:24.389Z,69.86
2022-09-26T04:46:31.442Z,69.86
2022-09-26T04:49:36.954Z,69.84
2022-09-26T04:52:42.971Z,69.63
2022-09-26T04:55:49.313Z,69.44
2022-09-26T04:58:56.643Z,69.39
2022-09-26T05:02:02.699Z,69.41
2022-09-26T05:05:09.697Z,69.55
2022-09-26T05:08:15.657Z,69.65
2022-09-26T05:11:21.619Z,69.67
2022-09-26T05:14:27.326Z,69.64
2022-09-26T05:17:33.180Z,69.65
2022-09-26T05:20:38.514Z,69.55
2022-09-26T05:24:01.640Z,69.58
2022-09-26T05:27:08.325Z,69.60
2022-09-26T05:30:14.121Z,69.58
2022-09-26T05:33:20.303Z,69.63
2022-09-26T05:36:25.847Z,69.58
2022-09-26T05:39:48.730Z,69.67
2022-09-26T05:43:00.384Z,69.89
2022-09-26T05:46:07.878Z,69.88
2022-09-26T05:49:14.854Z,69.75
2022-09-26T05:52:22.408Z,70.00
2022-09-26T05:55:28.461Z,70.10
2022-09-26T05:58:35.454Z,70.46
2022-09-26T06:01:40.832Z,70.60
2022-09-26T06:04:46.240Z,70.68
2022-09-26T06:07:51.971Z,70.74
2022-09-26T06:11:01.409Z,70.79
2022-09-26T06:14:08.392Z,70.84
2022-09-26T06:17:13.741Z,70.92
2022-09-26T06:20:19.390Z,70.83
2022-09-26T06:23:24.773Z,70.98
2022-09-26T06:26:30.196Z,71.14
2022-09-26T06:29:35.524Z,71.20
2022-09-26T06:32:40.903Z,71.21
2022-09-26T06:35:46.200Z,71.37
2022-09-26T06:38:52.131Z,71.42
2022-09-26T06:41:57.448Z,71.42
2022-09-26T06:45:02.730Z,71.57
2022-09-26T06:48:08.148Z,71.74
2022-09-26T06:51:14.528Z,71.72
2022-09-26T06:54:19.953Z,71.85
2022-09-26T06:57:25.236Z,71.86
2022-09-26T07:00:30.736Z,71.83
2022-09-26T07:03:38.631Z,72.00
2022-09-26T07:06:47.175Z,72.02
2022-09-26T07:09:52.482Z,71.82
2022-09-26T07:13:03.272Z,71.78
2022-09-26T07:16:09.199Z,71.65
2022-09-26T07:19:16.230Z,71.54
2022-09-26T07:22:21.659Z,71.51
2022-09-26T07:25:27.025Z,71.37
2022-09-26T07:28:32.458Z,71.57
2022-09-26T07:31:38.169Z,71.60
2022-09-26T07:34:44.017Z,71.55
2022-09-26T07:37:53.817Z,71.52
2022-09-26T07:41:00.911Z,71.77
2022-09-26T07:47:52.522Z,71.56
2022-09-26T07:51:00.186Z,71.24
2022-09-26T07:54:05.809Z,70.84
2022-09-26T07:57:11.891Z,70.60
2022-09-26T08:00:21.370Z,70.66
2022-09-26T08:03:28.593Z,70.71
2022-09-26T08:06:36.784Z,70.83
2022-09-26T08:09:42.110Z,70.91
2022-09-26T08:12:48.177Z,70.77
2022-09-26T08:15:54.350Z,71.01
2022-09-26T08:18:58.875Z,71.16
2022-09-26T08:22:07.538Z,71.60
2022-09-26T08:25:13.424Z,71.54
2022-09-26T08:28:18.842Z,71.47
2022-09-26T08:31:24.191Z,71.32
2022-09-26T08:34:32.276Z,71.51
2022-09-26T08:37:37.598Z,71.66
2022-09-26T08:40:51.487Z,71.52
2022-09-26T08:44:08.310Z,71.15
2022-09-26T08:47:29.679Z,71.17
2022-09-26T08:50:46.393Z,71.31
2022-09-26T08:53:58.489Z,71.75
2022-09-26T08:57:08.557Z,71.54
2022-09-26T09:00:22.606Z,71.17
2022-09-26T09:03:33.463Z,71.37
2022-09-26T09:06:39.237Z,71.43
2022-09-26T09:09:44.646Z,71.38
2022-09-26T09:13:01.997Z,71.05
2022-09-26T09:16:20.078Z,70.65
2022-09-26T09:19:33.863Z,70.34
2022-09-26T09:22:53.563Z,70.61
2022-09-26T09:29:56.722Z,71.04
2022-09-26T09:33:05.402Z,71.04
2022-09-26T09:36:15.044Z,70.88
2022-09-26T09:39:27.570Z,70.75
2022-09-26T09:42:41.857Z,70.52
2022-09-26T09:45:51.589Z,70.22
2022-09-26T09:49:01.470Z,69.79
2022-09-26T09:52:20.479Z,70.16
2022-09-26T09:55:39.832Z,70.38
2022-09-26T09:59:03.748Z,70.34
2022-09-26T10:02:22.079Z,70.32
2022-09-26T10:05:36.828Z,70.39
2022-09-26T10:08:43.301Z,70.43
2022-09-26T10:11:52.500Z,70.36
2022-09-26T10:15:03.248Z,70.27
2022-09-26T10:18:29.550Z,70.26
2022-09-26T10:21:40.848Z,70.27
2022-09-26T10:24:48.873Z,70.28
2022-09-26T10:27:57.468Z,70.26
2022-09-26T10:31:10.557Z,70.25
2022-09-26T10:34:28.010Z,70.21
2022-09-26T10:37:33.856Z,70.40
2022-09-26T10:40:46.178Z,70.65
2022-09-26T10:43:56.492Z,70.86
2022-09-26T10:47:08.309Z,70.82
2022-09-26T10:50:16.754Z,70.95
2022-09-26T10:53:24.185Z,71.16
2022-09-26T10:56:36.741Z,71.16
2022-09-26T10:59:43.549Z,71.25
2022-09-26T11:02:52.304Z,71.37
2022-09-26T11:05:57.650Z,71.43
2022-09-26T11:09:04.750Z,71.02
2022-09-26T11:12:29.196Z,70.75
2022-09-26T11:15:34.644Z,71.01
2022-09-26T11:18:49.441Z,71.61
2022-09-26T11:22:05.755Z,71.80
2022-09-26T11:25:19.628Z,71.37
2022-09-26T11:28:31.536Z,71.35
2022-09-26T11:31:41.037Z,71.67
2022-09-26T11:34:47.283Z,71.18
2022-09-26T11:38:09.258Z,70.85
2022-09-26T11:41:40.954Z,70.21
2022-09-26T11:45:06.109Z,70.38
2022-09-26T11:48:32.936Z,70.73
2022-09-26T11:51:50.928Z,69.87
2022-09-26T11:55:11.837Z,70.15
2022-09-26T11:58:28.025Z,69.56
2022-09-26T12:01:44.178Z,69.17
2022-09-26T12:05:02.646Z,68.95
2022-09-26T12:08:20.696Z,67.87
2022-09-26T12:11:36.953Z,66.59
2022-09-26T12:14:54.202Z,65.58
2022-09-26T12:18:13.820Z,65.93
2022-09-26T12:21:32.182Z,65.27
2022-09-26T12:24:46.260Z,64.94
2022-09-26T12:28:02.124Z,64.09
2022-09-26T12:31:19.780Z,62.46
2022-09-26T12:34:45.128Z,62.32
2022-09-26T12:38:07.289Z,62.22
2022-09-26T12:41:39.483Z,62.66
2022-09-26T12:45:11.831Z,61.49
2022-09-26T12:48:38.256Z,61.56
2022-09-26T12:51:48.119Z,62.14
2022-09-26T12:55:07.734Z,61.72
2022-09-26T12:58:32.338Z,61.31
2022-09-26T13:02:00.733Z,59.28
2022-09-26T13:05:22.415Z,57.06
2022-09-26T13:08:36.878Z,58.21
2022-09-26T13:11:55.084Z,59.38
2022-09-26T13:15:17.369Z,62.13
2022-09-26T13:18:33.161Z,63.70
2022-09-26T13:21:49.789Z,64.33
2022-09-26T13:25:00.445Z,62.23
2022-09-26T13:28:11.512Z,61.15
2022-09-26T13:31:22.754Z,60.20
2022-09-26T13:34:35.930Z,60.33
2022-09-26T13:37:50.501Z,58.70
2022-09-26T13:41:05.067Z,60.36
2022-09-26T13:44:23.547Z,61.30
2022-09-26T13:47:39.981Z,62.61
2022-09-26T13:50:54.836Z,61.05
2022-09-26T13:54:10.665Z,60.84
2022-09-26T13:57:31.901Z,61.71
2022-09-26T14:00:53.501Z,60.72
2022-09-26T14:04:18.982Z,61.53
2022-09-26T14:08:05.329Z,62.09
2022-09-26T14:11:24.521Z,62.31
2022-09-26T14:14:44.317Z,60.57
2022-09-26T14:18:16.434Z,58.72
2022-09-26T14:21:35.123Z,60.14
2022-09-26T14:24:42.370Z,62.36
2022-09-26T14:27:49.430Z,63.44
2022-09-26T14:31:22.267Z,63.39
2022-09-26T14:34:30.497Z,64.24
2022-09-26T14:37:42.577Z,64.47
2022-09-26T14:40:57.823Z,64.31
2022-09-26T14:44:05.461Z,64.52
2022-09-26T14:47:17.266Z,64.59
2022-09-26T14:50:35.482Z,64.31
2022-09-26T14:53:45.229Z,64.50
2022-09-26T14:56:59.578Z,64.83
2022-09-26T15:00:35.053Z,65.01
2022-09-26T15:03:41.216Z,65.38
2022-09-26T15:06:52.058Z,65.66
2022-09-26T15:10:03.207Z,65.52
2022-09-26T15:13:24.170Z,65.68
2022-09-26T15:16:37.612Z,65.98
2022-09-26T15:19:50.329Z,65.98
2022-09-26T15:22:57.458Z,66.06
2022-09-26T15:26:03.772Z,66.20
2022-09-26T15:29:12.144Z,66.29
2022-09-26T15:32:25.865Z,66.36
2022-09-26T15:35:31.959Z,66.56
2022-09-26T15:38:35.954Z,66.75
2022-09-26T15:42:04.285Z,66.99
2022-09-26T15:45:26.279Z,67.08
2022-09-26T15:48:33.314Z,66.84
2022-09-26T15:51:40.773Z,66.48
2022-09-26T15:54:46.443Z,66.48
2022-09-26T15:57:55.941Z,66.24
2022-09-26T16:01:01.782Z,66.13
2022-09-26T16:04:14.884Z,66.09
2022-09-26T16:07:25.008Z,66.25
2022-09-26T16:10:35.640Z,66.37
2022-09-26T16:13:46.288Z,66.39
2022-09-26T16:16:51.732Z,66.26
2022-09-26T16:19:58.970Z,66.30
2022-09-26T16:23:05.872Z,66.41
2022-09-26T16:26:32.430Z,66.49
2022-09-26T16:29:39.089Z,66.42
2022-09-26T16:32:44.539Z,66.32
2022-09-26T16:35:51.633Z,66.19
2022-09-26T16:39:02.739Z,66.49
2022-09-26T16:42:17.873Z,66.39
2022-09-26T16:45:23.502Z,65.96
2022-09-26T16:48:37.604Z,66.03
2022-09-26T16:51:42.939Z,65.86
2022-09-26T16:54:48.713Z,65.41
2022-09-26T16:57:57.849Z,65.42
2022-09-26T17:01:20.632Z,66.08
2022-09-26T17:04:31.312Z,66.63
2022-09-26T17:07:36.705Z,66.48
2022-09-26T17:10:44.061Z,66.00
2022-09-26T17:13:51.697Z,65.71
2022-09-26T17:16:58.402Z,65.94
2022-09-26T17:20:05.140Z,66.56
2022-09-26T17:23:34.861Z,66.85
2022-09-26T17:26:37.723Z,66.85
2022-09-26T17:29:48.593Z,66.64
2022-09-26T17:32:55.265Z,66.46
2022-09-26T17:36:00.802Z,66.37
2022-09-26T17:39:14.049Z,66.59
2022-09-26T17:42:20.394Z,66.81
2022-09-26T17:45:30.337Z,66.59
2022-09-26T17:48:35.911Z,66.79
2022-09-26T17:51:42.867Z,67.20
2022-09-26T17:54:52.232Z,67.06
2022-09-26T17:57:58.503Z,66.88
2022-09-26T18:01:04.519Z,66.86
2022-09-26T18:04:17.933Z,66.99
2022-09-26T18:07:24.474Z,67.05
2022-09-26T18:10:33.802Z,67.18
2022-09-26T18:13:44.826Z,67.32
2022-09-26T18:16:50.257Z,67.47
2022-09-26T18:19:55.567Z,67.47
2022-09-26T18:23:01.159Z,67.45
2022-09-26T18:26:08.229Z,67.34
2022-09-26T18:29:16.908Z,67.30
2022-09-26T18:32:29.092Z,67.67
2022-09-26T18:35:34.604Z,67.91
2022-09-26T18:38:40.054Z,67.78
2022-09-26T18:41:46.237Z,67.95
2022-09-26T18:44:51.319Z,68.26
2022-09-26T18:47:57.133Z,68.63
2022-09-26T18:51:03.407Z,68.73
2022-09-26T18:54:13.423Z,68.64
2022-09-26T18:57:35.491Z,68.25
2022-09-26T19:00:41.102Z,67.94
2022-09-26T19:03:48.579Z,67.68
2022-09-26T19:07:00.885Z,67.34
2022-09-26T19:10:07.918Z,67.08
2022-09-26T19:13:13.253Z,66.97
2022-09-26T19:16:19.671Z,66.88
2022-09-26T19:19:26.188Z,66.93
2022-09-26T19:22:31.666Z,67.27
2022-09-26T19:25:36.981Z,68.12
2022-09-26T19:28:42.283Z,68.48
2022-09-26T19:31:47.743Z,68.50
2022-09-26T19:34:56.906Z,68.40
2022-09-26T19:38:03.813Z,68.19
2022-09-26T19:41:09.272Z,68.19
2022-09-26T19:44:14.823Z,68.34
2022-09-26T19:47:22.481Z,68.02
2022-09-26T19:50:29.128Z,67.58
2022-09-26T19:53:37.460Z,67.26
2022-09-26T19:56:43.235Z,67.06
2022-09-26T19:59:49.398Z,66.88
2022-09-26T20:02:54.496Z,66.85
2022-09-26T20:06:00.096Z,67.10
2022-09-26T20:09:07.521Z,66.94
2022-09-26T20:12:13.488Z,66.79
2022-09-26T20:15:21.147Z,66.64
2022-09-26T20:18:26.721Z,66.59
2022-09-26T20:21:33.625Z,66.58
2022-09-26T20:24:42.133Z,66.59
2022-09-26T20:27:47.430Z,66.45
2022-09-26T20:30:52.968Z,66.54
2022-09-26T20:34:00.186Z,66.48
2022-09-26T20:37:05.775Z,66.65
2022-09-26T20:40:18.237Z,66.42
2022-09-26T20:43:31.353Z,66.53
2022-09-26T20:46:40.556Z,66.69
2022-09-26T20:49:51.075Z,66.67
2022-09-26T20:52:56.387Z,66.72
2022-09-26T20:56:04.034Z,66.76
2022-09-26T20:59:09.386Z,66.71
2022-09-26T21:02:27.111Z,66.61
2022-09-26T21:05:32.674Z,66.69
2022-09-26T21:08:38.330Z,66.72
2022-09-26T21:11:43.982Z,66.69
2022-09-26T21:14:49.289Z,66.72
2022-09-26T21:17:56.257Z,66.84
2022-09-26T21:21:06.751Z,66.89
2022-09-26T21:24:24.150Z,66.72
2022-09-26T21:27:30.503Z,66.69
2022-09-26T21:30:36.204Z,66.52
2022-09-26T21:33:41.907Z,66.57
2022-09-26T21:36:47.800Z,66.81
2022-09-26T21:39:53.413Z,67.19
2022-09-26T21:43:01.919Z,67.56
2022-09-26T21:46:08.387Z,68.03
2022-09-26T21:49:13.776Z,68.54
2022-09-26T21:52:24.649Z,68.73
2022-09-26T21:55:33.714Z,68.88
2022-09-26T21:58:41.941Z,68.97
2022-09-26T22:01:47.332Z,69.11
2022-09-26T22:04:53.077Z,68.82
2022-09-26T22:07:59.026Z,68.46
2022-09-26T22:11:04.486Z,68.23
2022-09-26T22:14:10.032Z,68.28
2022-09-26T22:17:15.381Z,68.49
2022-09-26T22:20:20.831Z,68.97
2022-09-26T22:23:26.264Z,69.07
2022-09-26T22:26:31.630Z,69.25
2022-09-26T22:29:36.928Z,69.45
2022-09-26T22:32:42.431Z,69.49
2022-09-26T22:35:50.417Z,69.47
2022-09-26T22:38:55.889Z,69.52
2022-09-26T22:42:01.392Z,69.66
2022-09-26T22:45:07.933Z,69.30
2022-09-26T22:48:13.293Z,69.15
2022-09-26T22:51:19.512Z,69.42
2022-09-26T22:54:23.397Z,69.43
2022-09-26T22:57:29.249Z,69.41
2022-09-26T23:00:34.602Z,68.88
2022-09-26T23:03:41.974Z,68.82
2022-09-26T23:06:47.304Z,68.62
2022-09-26T23:09:52.653Z,68.77
2022-09-26T23:12:58.313Z,68.78
2022-09-26T23:16:07.904Z,68.77
2022-09-26T23:19:13.244Z,68.71
2022-09-26T23:22:18.677Z,68.63
2022-09-26T23:25:24.127Z,68.48
2022-09-26T23:28:29.778Z,68.53
2022-09-26T23:31:35.157Z,68.63
2022-09-26T23:34:40.579Z,68.72
2022-09-26T23:37:45.905Z,68.66
2022-09-26T23:40:51.299Z,68.56
2022-09-26T23:43:57.044Z,68.31
2022-09-26T23:47:04.326Z,68.08
2022-09-26T23:50:10.619Z,67.83
2022-09-26T23:53:16.908Z,67.75
2022-09-26T23:56:22.347Z,67.68
2022-09-26T23:59:27.804Z,67.65
